createdAt,value
2023-02-14T00:00:29.781Z,102178.28
2023-02-14T00:03:29.772Z,102179.19
2023-02-14T00:06:29.834Z,102154.25
2023-02-14T00:09:32.744Z,102163.69
2023-02-14T00:12:32.750Z,102177.41
2023-02-14T00:15:32.724Z,102168.84
2023-02-14T00:18:54.749Z,102155.94
2023-02-14T00:21:54.728Z,102169.66
2023-02-14T00:24:54.799Z,102171.41
2023-02-14T00:27:54.773Z,102161.06
2023-02-14T00:30:47.805Z,102156.78
2023-02-14T00:33:47.792Z,102162.78
2023-02-14T00:36:47.778Z,102155.87
2023-02-14T00:39:47.780Z,102122.34
2023-02-14T00:42:47.727Z,102097.50
2023-02-14T00:45:48.796Z,102140.31
2023-02-14T00:48:48.774Z,102133.47
2023-02-14T00:51:48.752Z,102134.34
2023-02-14T00:54:48.775Z,102085.41
2023-02-14T00:57:48.754Z,102106.81
2023-02-14T01:00:48.774Z,102101.66
2023-02-14T01:03:48.756Z,102081.91
2023-02-14T01:06:48.774Z,102095.63
2023-02-14T01:09:48.739Z,102093.88
2023-02-14T01:12:48.775Z,102094.69
2023-02-14T01:15:52.746Z,102095.59
2023-02-14T01:18:54.770Z,102080.09
2023-02-14T01:21:54.774Z,102086.12
2023-02-14T01:24:54.776Z,102086.97
2023-02-14T01:27:55.728Z,102083.53
2023-02-14T01:30:55.847Z,102073.22
2023-02-14T01:33:56.784Z,102078.38
2023-02-14T01:36:56.744Z,102061.25
2023-02-14T01:39:56.755Z,102077.50
2023-02-14T01:42:56.748Z,102062.00
2023-02-14T01:45:56.826Z,102033.75
2023-02-14T01:48:56.744Z,102060.25
2023-02-14T01:52:00.138Z,102039.72
2023-02-14T01:55:05.793Z,102025.97
2023-02-14T01:58:29.766Z,102057.69
2023-02-14T02:01:30.850Z,102055.09
2023-02-14T02:04:33.797Z,102057.69
2023-02-14T02:07:36.789Z,102028.59
2023-02-14T02:10:36.735Z,102061.16
2023-02-14T02:13:36.782Z,102044.81
2023-02-14T02:17:04.793Z,102041.34
2023-02-14T02:20:17.767Z,102014.84
2023-02-14T02:23:14.745Z,102051.69
2023-02-14T02:26:38.717Z,102053.44
2023-02-14T02:30:09.807Z,102056.06
2023-02-14T02:33:18.706Z,102041.47
2023-02-14T02:36:31.735Z,102055.19
2023-02-14T02:39:50.791Z,102061.22
2023-02-14T02:43:07.729Z,102053.47
2023-02-14T02:46:36.760Z,102053.47
2023-02-14T02:50:16.746Z,102059.50
2023-02-14T02:53:33.749Z,102051.75
2023-02-14T02:56:52.778Z,102065.53
2023-02-14T02:59:55.785Z,102037.25
2023-02-14T03:03:16.728Z,102065.53
2023-02-14T03:06:16.767Z,102044.88
2023-02-14T03:09:24.740Z,102057.75
2023-02-14T03:12:47.759Z,102058.69
2023-02-14T03:16:04.857Z,102067.28
2023-02-14T03:19:23.736Z,102058.69
2023-02-14T03:22:41.748Z,102053.53
2023-02-14T03:25:41.788Z,102043.25
2023-02-14T03:28:52.752Z,102048.38
2023-02-14T03:32:04.851Z,102069.88
2023-02-14T03:35:12.772Z,102066.44
2023-02-14T03:38:27.722Z,102069.91
2023-02-14T03:41:31.761Z,102049.25
2023-02-14T03:44:34.756Z,102054.38
2023-02-14T03:47:36.734Z,102055.25
2023-02-14T03:50:36.729Z,102043.16
2023-02-14T03:53:40.730Z,102053.50
2023-02-14T03:56:44.719Z,102053.47
2023-02-14T03:59:44.802Z,102052.56
2023-02-14T04:02:50.728Z,102044.84
2023-02-14T04:05:52.758Z,102062.03
2023-02-14T04:08:52.733Z,102051.78
2023-02-14T04:11:52.783Z,102066.34
2023-02-14T04:14:52.747Z,102062.91
2023-02-14T04:18:11.787Z,102051.72
2023-02-14T04:21:11.749Z,102049.19
2023-02-14T04:24:11.730Z,102068.91
2023-02-14T04:27:17.730Z,102058.56
2023-02-14T04:30:18.774Z,102073.19
2023-02-14T04:33:18.771Z,102066.28
2023-02-14T04:36:18.722Z,102071.44
2023-02-14T04:39:18.776Z,102064.59
2023-02-14T04:42:18.724Z,102046.56
2023-02-14T04:45:18.762Z,102064.56
2023-02-14T04:48:18.732Z,102065.38
2023-02-14T04:51:18.718Z,102062.81
2023-02-14T04:54:18.761Z,102037.09
2023-02-14T04:57:18.774Z,102074.00
2023-02-14T05:00:19.770Z,102054.22
2023-02-14T05:03:12.779Z,102047.37
2023-02-14T05:05:58.724Z,102060.16
2023-02-14T05:08:58.717Z,102067.03
2023-02-14T05:11:58.731Z,102055.03
2023-02-14T05:14:58.730Z,102058.50
2023-02-14T05:17:58.712Z,102060.13
2023-02-14T05:20:58.922Z,102076.50
2023-02-14T05:23:58.759Z,102069.63
2023-02-14T05:26:58.729Z,102063.59
2023-02-14T05:29:58.810Z,102047.34
2023-02-14T05:32:58.737Z,102052.50
2023-02-14T05:35:58.746Z,102065.34
2023-02-14T05:38:58.727Z,102064.44
2023-02-14T05:41:59.475Z,102070.50
2023-02-14T05:44:59.758Z,102073.91
2023-02-14T05:48:00.872Z,102073.94
2023-02-14T05:51:01.073Z,102056.81
2023-02-14T05:54:00.758Z,102071.38
2023-02-14T05:57:00.779Z,102067.94
2023-02-14T06:00:00.770Z,102060.22
2023-02-14T06:03:04.747Z,102070.56
2023-02-14T06:06:04.781Z,102063.72
2023-02-14T06:09:04.810Z,102070.56
2023-02-14T06:12:08.293Z,102080.03
2023-02-14T06:15:08.744Z,102074.00
2023-02-14T06:18:09.789Z,102068.81
2023-02-14T06:21:12.112Z,102071.34
2023-02-14T06:24:13.778Z,102050.00
2023-02-14T06:27:15.757Z,101987.41
2023-02-14T06:30:15.778Z,102039.63
2023-02-14T06:33:15.716Z,102049.94
2023-02-14T06:36:15.914Z,102037.03
2023-02-14T06:39:18.803Z,102046.41
2023-02-14T06:42:19.811Z,102040.34
2023-02-14T06:45:20.740Z,102072.91
2023-02-14T06:48:20.754Z,102078.03
2023-02-14T06:51:21.855Z,102030.03
2023-02-14T06:54:23.862Z,102071.94
2023-02-14T06:57:26.784Z,102078.00
2023-02-14T07:00:26.711Z,102074.63
2023-02-14T07:03:26.968Z,102072.84
2023-02-14T07:06:29.074Z,102077.19
2023-02-14T07:09:32.710Z,102065.97
2023-02-14T07:12:32.896Z,102080.59
2023-02-14T07:15:32.901Z,102068.50
2023-02-14T07:18:33.786Z,102059.06
2023-02-14T07:21:36.407Z,102039.38
2023-02-14T07:24:39.815Z,101948.66
2023-02-14T07:27:45.758Z,102078.66
2023-02-14T07:30:49.956Z,102046.22
2023-02-14T07:33:44.025Z,102047.84
2023-02-14T07:36:31.823Z,102070.87
2023-02-14T07:39:18.841Z,102079.53
2023-02-14T07:42:04.723Z,102072.53
2023-02-14T07:45:20.770Z,102071.69
2023-02-14T07:48:20.824Z,102072.56
2023-02-14T07:51:21.030Z,102065.62
2023-02-14T07:54:21.288Z,102079.22
2023-02-14T07:57:24.802Z,102062.94
2023-02-14T08:00:24.781Z,102061.00
2023-02-14T08:03:25.742Z,102091.81
2023-02-14T08:06:25.773Z,102087.37
2023-02-14T08:09:30.766Z,102080.44
2023-02-14T08:12:49.846Z,102051.53
2023-02-14T08:16:07.882Z,102076.34
2023-02-14T08:19:07.765Z,102029.91
2023-02-14T08:22:07.761Z,102100.19
2023-02-14T08:25:07.738Z,102055.59
2023-02-14T08:28:07.757Z,102072.66
2023-02-14T08:31:53.261Z,102099.13
2023-02-14T08:34:57.851Z,102128.50
2023-02-14T08:37:57.739Z,102090.41
2023-02-14T08:40:59.933Z,102102.44
2023-02-14T08:43:59.723Z,102099.03
2023-02-14T08:47:03.890Z,102086.09
2023-02-14T08:50:03.757Z,102075.69
2023-02-14T08:53:03.752Z,102076.44
2023-02-14T08:56:03.775Z,102105.34
2023-02-14T08:59:13.785Z,102094.09
2023-02-14T09:02:17.867Z,102103.34
2023-02-14T09:04:57.845Z,102115.31
2023-02-14T09:07:44.090Z,102125.47
2023-02-14T09:10:25.908Z,102122.94
2023-02-14T09:13:11.748Z,102126.44
2023-02-14T09:16:00.800Z,102079.06
2023-02-14T09:19:06.784Z,102115.97
2023-02-14T09:22:06.773Z,102090.03
2023-02-14T09:25:06.778Z,102131.06
2023-02-14T09:28:06.708Z,102119.88
2023-02-14T09:31:06.875Z,102124.91
2023-02-14T09:34:06.736Z,102105.16
2023-02-14T09:37:11.613Z,102127.94
2023-02-14T09:40:12.809Z,102128.81
2023-02-14T09:43:57.781Z,102126.88
2023-02-14T09:47:02.731Z,102135.31
2023-02-14T09:50:04.368Z,102124.03
2023-02-14T09:53:26.756Z,102111.19
2023-02-14T09:56:51.865Z,102096.22
2023-02-14T10:00:07.760Z,102120.81
2023-02-14T10:03:32.332Z,102103.25
2023-02-14T10:06:54.888Z,102115.63
2023-02-14T10:10:33.309Z,102091.09
2023-02-14T10:13:43.235Z,102100.34
2023-02-14T10:16:47.804Z,102082.88
2023-02-14T10:19:56.719Z,102092.13
2023-02-14T10:22:59.707Z,102102.88
2023-02-14T10:26:07.750Z,102099.25
2023-02-14T10:29:08.727Z,102094.84
2023-02-14T10:32:12.811Z,102096.56
2023-02-14T10:35:15.099Z,102096.47
2023-02-14T10:38:44.792Z,102078.16
2023-02-14T10:42:17.790Z,102096.72
2023-02-14T10:45:54.832Z,102090.19
2023-02-14T10:49:06.821Z,102089.81
2023-02-14T10:52:10.763Z,102087.72
2023-02-14T10:55:20.254Z,102082.13
2023-02-14T10:58:36.055Z,102058.84
2023-02-14T11:01:35.790Z,102057.19
2023-02-14T11:04:37.776Z,102072.91
2023-02-14T11:07:37.730Z,102071.22
2023-02-14T11:10:46.846Z,102078.16
2023-02-14T11:13:49.854Z,102063.16
2023-02-14T11:16:50.914Z,102056.75
2023-02-14T11:19:53.947Z,102051.72
2023-02-14T11:22:54.854Z,102049.69
2023-02-14T11:25:54.738Z,102052.66
2023-02-14T11:29:23.931Z,102023.19
2023-02-14T11:32:34.769Z,102056.13
2023-02-14T11:35:40.740Z,102034.97
2023-02-14T11:38:43.745Z,102032.25
2023-02-14T11:42:02.841Z,102046.06
2023-02-14T11:45:13.782Z,101983.34
2023-02-14T11:48:38.130Z,101976.13
2023-02-14T11:51:49.728Z,102007.59
2023-02-14T11:54:55.769Z,101980.31
2023-02-14T11:58:01.227Z,102010.97
2023-02-14T12:01:07.740Z,101999.75
2023-02-14T12:04:09.871Z,101964.31
2023-02-14T12:07:09.762Z,101995.78
2023-02-14T12:10:26.879Z,101990.47
2023-02-14T12:13:27.744Z,101995.00
2023-02-14T12:16:35.786Z,101990.44
2023-02-14T12:19:52.203Z,101954.66
2023-02-14T12:22:57.744Z,101976.66
2023-02-14T12:26:09.750Z,101985.87
2023-02-14T12:29:16.749Z,101979.09
2023-02-14T12:32:37.783Z,101984.03
2023-02-14T12:35:43.866Z,101972.69
2023-02-14T12:39:13.792Z,101986.41
2023-02-14T12:42:46.808Z,101984.12
2023-02-14T12:49:39.461Z,101972.47
2023-02-14T12:52:39.031Z,101963.22
2023-02-14T12:56:24.752Z,101985.63
2023-02-14T13:00:05.766Z,101986.09
2023-02-14T13:03:36.758Z,101951.38
2023-02-14T13:06:50.725Z,101979.88
2023-02-14T13:10:00.736Z,101974.47
2023-02-14T13:13:35.770Z,101967.53
2023-02-14T13:17:08.770Z,101971.91
2023-02-14T13:20:20.756Z,101952.88
2023-02-14T13:23:42.726Z,101973.72
2023-02-14T13:26:45.775Z,101976.00
2023-02-14T13:29:56.716Z,101969.37
2023-02-14T13:32:58.733Z,101968.34
2023-02-14T13:35:58.887Z,101972.81
2023-02-14T13:39:04.729Z,101975.31
2023-02-14T13:42:04.722Z,101972.13
2023-02-14T13:45:04.733Z,101915.13
2023-02-14T13:48:18.757Z,101969.16
2023-02-14T13:51:20.743Z,101976.37
2023-02-14T13:54:34.725Z,101955.56
2023-02-14T13:57:47.716Z,101954.00
2023-02-14T14:00:52.783Z,101970.75
2023-02-14T14:03:52.746Z,101958.47
2023-02-14T14:07:16.703Z,101953.19
2023-02-14T14:10:18.726Z,101954.56
2023-02-14T14:13:20.727Z,101962.63
2023-02-14T14:16:38.780Z,101964.31
2023-02-14T14:19:38.753Z,101961.12
2023-02-14T14:22:42.726Z,101967.50
2023-02-14T14:25:49.731Z,101962.75
2023-02-14T14:28:49.715Z,101941.22
2023-02-14T14:31:49.811Z,101950.28
2023-02-14T14:34:42.817Z,101949.78
2023-02-14T14:37:48.762Z,101956.84
2023-02-14T14:40:50.741Z,101937.03
2023-02-14T14:43:52.760Z,101942.59
2023-02-14T14:46:54.031Z,101956.22
2023-02-14T14:49:46.749Z,101953.25
2023-02-14T14:52:55.728Z,101945.34
2023-02-14T14:56:02.086Z,101967.16
2023-02-14T14:59:02.761Z,101968.44
2023-02-14T15:02:02.720Z,101963.56
2023-02-14T15:05:02.747Z,101937.47
2023-02-14T15:08:02.728Z,101971.09
2023-02-14T15:11:12.726Z,101952.81
2023-02-14T15:14:12.740Z,101984.75
2023-02-14T15:17:17.719Z,101978.97
2023-02-14T15:20:22.768Z,101978.16
2023-02-14T15:23:30.737Z,101981.19
2023-02-14T15:26:41.710Z,101953.03
2023-02-14T15:29:44.784Z,101976.37
2023-02-14T15:32:46.767Z,101975.87
2023-02-14T15:35:48.737Z,101978.87
2023-02-14T15:38:53.729Z,101988.63
2023-02-14T15:41:59.748Z,101998.44
2023-02-14T15:44:59.757Z,101996.91
2023-02-14T15:48:00.777Z,101998.72
2023-02-14T15:51:04.777Z,102002.25
2023-02-14T15:54:07.754Z,101998.97
2023-02-14T15:57:07.785Z,101990.44
2023-02-14T16:00:07.760Z,102004.22
2023-02-14T16:03:15.733Z,102012.00
2023-02-14T16:06:15.709Z,102004.22
2023-02-14T16:09:15.711Z,102018.62
2023-02-14T16:12:47.716Z,101998.66
2023-02-14T16:15:49.792Z,102017.41
2023-02-14T16:18:59.701Z,102023.37
2023-02-14T16:22:09.763Z,102024.16
2023-02-14T16:25:10.032Z,102025.03
2023-02-14T16:28:09.723Z,102027.69
2023-02-14T16:31:11.811Z,101999.56
2023-02-14T16:34:11.763Z,102024.41
2023-02-14T16:37:11.736Z,102022.84
2023-02-14T16:40:14.259Z,102011.16
2023-02-14T16:43:13.719Z,102024.94
2023-02-14T16:46:13.784Z,102010.53
2023-02-14T16:49:13.730Z,102029.56
2023-02-14T16:52:13.742Z,102022.81
2023-02-14T16:55:13.732Z,102021.34
2023-02-14T16:58:13.695Z,102021.53
2023-02-14T17:01:13.749Z,102008.34
2023-02-14T17:04:13.704Z,102004.19
2023-02-14T17:07:14.740Z,102032.69
2023-02-14T17:10:18.747Z,102030.44
2023-02-14T17:13:18.725Z,102034.06
2023-02-14T17:16:21.779Z,102035.97
2023-02-14T17:19:21.765Z,102038.75
2023-02-14T17:22:21.736Z,102045.12
2023-02-14T17:25:21.738Z,102027.25
2023-02-14T17:28:21.748Z,102038.59
2023-02-14T17:31:21.795Z,102037.09
2023-02-14T17:34:21.781Z,102045.75
2023-02-14T17:37:21.707Z,102044.19
2023-02-14T17:40:15.772Z,102030.63
2023-02-14T17:43:01.733Z,102042.63
2023-02-14T17:46:02.718Z,102030.81
2023-02-14T17:49:02.724Z,102051.53
2023-02-14T17:52:02.726Z,102055.12
2023-02-14T17:55:02.721Z,102056.03
2023-02-14T17:58:02.840Z,102069.81
2023-02-14T18:01:02.741Z,102065.56
2023-02-14T18:04:02.750Z,102063.97
2023-02-14T18:07:02.742Z,102035.75
2023-02-14T18:10:02.743Z,102062.34
2023-02-14T18:13:02.766Z,102055.47
2023-02-14T18:16:03.034Z,102058.09
2023-02-14T18:19:02.826Z,102040.09
2023-02-14T18:22:02.784Z,102058.03
2023-02-14T18:25:04.725Z,102057.06
2023-02-14T18:28:04.771Z,102053.75
2023-02-14T18:31:04.798Z,102058.91
2023-02-14T18:34:04.762Z,102050.41
2023-02-14T18:37:06.764Z,102058.22
2023-02-14T18:40:06.711Z,102051.47
2023-02-14T18:43:06.697Z,102057.59
2023-02-14T18:46:06.908Z,102038.69
2023-02-14T18:49:06.707Z,102052.47
2023-02-14T18:52:06.723Z,102050.56
2023-02-14T18:55:06.700Z,102052.34
2023-02-14T18:58:07.852Z,102052.41
2023-02-14T19:01:07.766Z,102059.28
2023-02-14T19:04:07.745Z,102059.25
2023-02-14T19:07:07.710Z,102049.84
2023-02-14T19:10:07.760Z,102055.06
2023-02-14T19:13:07.714Z,102048.22
2023-02-14T19:16:11.758Z,102049.91
2023-02-14T19:19:11.767Z,102046.47
2023-02-14T19:22:12.732Z,102038.72
2023-02-14T19:25:12.757Z,102049.06
2023-02-14T19:28:13.734Z,102045.59
2023-02-14T19:31:13.882Z,102012.09
2023-02-14T19:34:13.734Z,102024.91
2023-02-14T19:37:14.727Z,102035.88
2023-02-14T19:40:16.709Z,102045.16
2023-02-14T19:43:16.721Z,102018.56
2023-02-14T19:46:17.727Z,102051.69
2023-02-14T19:49:17.714Z,102029.50
2023-02-14T19:52:26.424Z,102047.44
2023-02-14T19:55:34.773Z,102033.50
2023-02-14T19:58:34.749Z,102043.03
2023-02-14T20:01:46.771Z,102037.47
2023-02-14T20:04:46.745Z,102031.38
2023-02-14T20:07:46.738Z,102017.34
2023-02-14T20:10:46.740Z,102030.63
2023-02-14T20:13:46.689Z,102037.37
2023-02-14T20:16:47.843Z,102027.81
2023-02-14T20:19:48.707Z,102033.91
2023-02-14T20:22:48.729Z,102034.72
2023-02-14T20:25:46.738Z,102039.84
2023-02-14T20:28:32.746Z,102040.63
2023-02-14T20:31:32.860Z,102042.59
2023-02-14T20:34:32.751Z,102048.50
2023-02-14T20:37:32.735Z,102055.38
2023-02-14T20:40:32.709Z,102062.22
2023-02-14T20:43:32.740Z,102051.00
2023-02-14T20:46:33.720Z,102055.50
2023-02-14T20:49:35.758Z,102051.81
2023-02-14T20:52:35.703Z,102051.81
2023-02-14T20:55:37.996Z,102048.91
2023-02-14T20:58:37.692Z,102047.31
2023-02-14T21:01:38.761Z,102056.00
2023-02-14T21:04:38.745Z,102055.81
2023-02-14T21:07:38.705Z,102038.69
2023-02-14T21:10:38.700Z,102027.63
2023-02-14T21:13:38.760Z,102055.12
2023-02-14T21:16:38.712Z,102062.03
2023-02-14T21:19:38.694Z,102061.22
2023-02-14T21:22:38.733Z,102062.19
2023-02-14T21:25:38.691Z,102052.78
2023-02-14T21:28:38.709Z,102036.53
2023-02-14T21:31:38.781Z,102062.41
2023-02-14T21:34:38.717Z,102062.50
2023-02-14T21:37:38.715Z,102067.59
2023-02-14T21:40:38.724Z,102058.00
2023-02-14T21:43:38.690Z,102064.94
2023-02-14T21:46:43.774Z,102061.50
2023-02-14T21:50:02.717Z,102062.50
2023-02-14T21:53:02.760Z,102061.75
2023-02-14T21:56:02.692Z,102048.81
2023-02-14T21:59:04.722Z,102065.13
2023-02-14T22:02:05.722Z,102069.69
2023-02-14T22:05:05.698Z,102069.69
2023-02-14T22:08:05.710Z,102063.59
2023-02-14T22:11:05.726Z,102076.47
2023-02-14T22:14:05.711Z,102074.78
2023-02-14T22:17:05.706Z,102080.06
2023-02-14T22:20:05.754Z,102074.03
2023-02-14T22:23:05.725Z,102081.91
2023-02-14T22:26:05.735Z,102073.34
2023-02-14T22:29:07.698Z,102081.13
2023-02-14T22:32:07.796Z,102078.56
2023-02-14T22:35:07.742Z,102090.66
2023-02-14T22:38:08.749Z,102090.78
2023-02-14T22:41:08.745Z,102090.94
2023-02-14T22:44:08.696Z,102101.31
2023-02-14T22:47:08.738Z,102096.19
2023-02-14T22:50:08.695Z,102083.41
2023-02-14T22:53:08.728Z,102094.59
2023-02-14T22:56:08.713Z,102086.97
2023-02-14T22:59:13.721Z,102090.44
2023-02-14T23:02:13.729Z,102087.78
2023-02-14T23:05:13.711Z,102091.34
2023-02-14T23:08:14.722Z,102084.47
2023-02-14T23:11:26.742Z,102077.69
2023-02-14T23:14:45.744Z,102082.78
2023-02-14T23:18:03.746Z,102081.13
2023-02-14T23:21:23.715Z,102089.59
2023-02-14T23:24:23.740Z,102088.84
2023-02-14T23:27:23.721Z,102088.00
2023-02-14T23:30:28.756Z,102078.66
2023-02-14T23:33:28.699Z,102073.44
2023-02-14T23:36:28.715Z,102076.06
2023-02-14T23:39:28.723Z,102078.66
2023-02-14T23:42:28.737Z,102082.22
2023-02-14T23:45:43.758Z,102060.81
2023-02-14T23:48:43.688Z,102078.81
2023-02-14T23:51:43.709Z,102091.81
2023-02-14T23:54:43.715Z,102058.28
2023-02-14T23:57:43.708Z,102084.06
